Time;durP1;ratioP1;P1;durP2;ratioP2;P2;SDS_P1;SDS_P2;PMS_P1;PMS_P2;Temp;Humidity;BMP_temperature;BMP_pressure;BME280_temperature;BME280_humidity;BME280_pressure;Samples;Min_cycle;Max_cycle;Signal;HPM_P1;HPM_P2
2022/01/25 01:47:50;;;;;;;41.85;28.65;;;;;;;16.58;39.92;103191.59;5354669;22;20081;-75
2022/01/25 01:50:28;;;;;;;46.20;28.27;;;;;;;16.61;39.84;103188.22;4995720;28;20039;-75
2022/01/25 01:52:54;;;;;;;42.80;28.90;;;;;;;16.65;39.87;103194.81;4995950;28;20081;-75
2022/01/25 01:55:21;;;;;;;41.85;27.35;;;;;;;16.67;39.97;103191.75;5014833;28;20026;-75
2022/01/25 01:57:49;;;;;;;46.90;29.95;;;;;;;16.30;40.57;103189.69;5015200;28;20112;-75
2022/01/25 02:00:20;;;;;;;43.20;28.23;;;;;;;16.46;40.28;103188.41;5015344;28;20036;-75
2022/01/25 02:02:46;;;;;;;44.50;28.80;;;;;;;16.64;39.81;103190.41;5015226;28;20550;-74
2022/01/25 02:05:12;;;;;;;36.90;26.50;;;;;;;16.55;39.94;103186.66;5014952;28;20107;-74
2022/01/25 02:07:37;;;;;;;44.47;29.15;;;;;;;16.53;40.08;103183.34;5015092;28;20026;-74
2022/01/25 02:10:05;;;;;;;48.78;28.48;;;;;;;16.53;39.89;103194.41;5014878;28;20025;-73
2022/01/25 02:12:31;;;;;;;40.55;28.15;;;;;;;16.52;40.27;103197.44;5014854;28;20036;-72
2022/01/25 02:14:56;;;;;;;45.17;29.25;;;;;;;16.54;40.07;103198.78;5014803;28;20113;-74
2022/01/25 02:17:58;;;;;;;48.72;28.52;;;;;;;16.52;40.11;103198.28;5014715;28;20034;-74
2022/01/25 02:22:56;;;;;;;39.28;27.50;;;;;;;16.54;40.16;103190.50;5014891;28;20495;-76
2022/01/25 02:25:23;;;;;;;45.83;29.77;;;;;;;16.46;40.06;103188.41;5014775;28;20026;-76
2022/01/25 02:27:48;;;;;;;49.17;29.55;;;;;;;16.48;40.15;103188.94;5014657;28;20021;-70
2022/01/25 02:30:14;;;;;;;45.65;27.13;;;;;;;16.44;40.27;103190.66;5014717;28;20384;-70
2022/01/25 02:32:40;;;;;;;43.92;27.27;;;;;;;16.43;40.31;103189.00;5014585;28;20101;-70
2022/01/25 02:35:06;;;;;;;46.08;27.92;;;;;;;16.44;40.12;103187.88;5005174;28;20392;-72
2022/01/25 02:37:32;;;;;;;42.85;28.55;;;;;;;16.52;40.13;103183.66;5004127;28;20364;-71
2022/01/25 02:39:58;;;;;;;41.45;27.88;;;;;;;16.54;39.91;103184.19;5004327;28;20077;-75
2022/01/25 02:42:24;;;;;;;43.30;28.45;;;;;;;16.58;40.19;103188.81;5004931;28;20548;-75
2022/01/25 02:44:50;;;;;;;44.35;27.02;;;;;;;16.65;39.96;103185.72;5002785;28;20027;-76
2022/01/25 02:50:01;;;;;;;42.58;26.50;;;;;;;16.62;39.94;103187.13;5001563;28;20456;-74
2022/01/25 02:52:27;;;;;;;46.47;29.25;;;;;;;16.64;39.69;103184.88;5000290;28;20040;-76
2022/01/25 02:54:53;;;;;;;44.92;27.63;;;;;;;16.67;39.74;103185.41;5003575;28;20109;-74
2022/01/25 02:57:19;;;;;;;43.08;27.85;;;;;;;16.65;39.60;103181.00;5004756;28;20089;-77
2022/01/25 02:59:45;;;;;;;45.25;29.25;;;;;;;16.69;39.89;103177.66;5002297;28;20027;-71
2022/01/25 03:02:10;;;;;;;46.30;29.45;;;;;;;16.68;39.68;103176.81;5003722;28;20538;-71
2022/01/25 03:04:36;;;;;;;41.65;27.60;;;;;;;16.68;39.62;103176.81;5003717;28;20619;-75
2022/01/25 03:07:02;;;;;;;45.33;28.63;;;;;;;16.68;39.59;103178.75;5004759;28;20471;-71
2022/01/25 03:09:28;;;;;;;46.20;27.60;;;;;;;16.71;39.67;103181.81;5002646;28;20407;-71
2022/01/25 03:11:55;;;;;;;43.58;27.08;;;;;;;16.70;39.69;103174.66;5002944;28;20617;-75
2022/01/25 03:14:23;;;;;;;45.75;28.25;;;;;;;16.65;39.61;103174.66;5003834;28;20404;-72
2022/01/25 03:17:06;;;;;;;41.95;28.48;;;;;;;16.66;39.61;103184.59;4995365;28;20026;-70
2022/01/25 03:22:12;;;;;;;44.03;29.05;;;;;;;16.62;39.60;103164.19;5002073;28;20113;-71
2022/01/25 03:24:38;;;;;;;40.13;28.05;;;;;;;16.60;39.81;103164.50;5002504;28;20069;-74
2022/01/25 03:27:04;;;;;;;39.13;26.80;;;;;;;16.58;39.80;103166.75;5001583;28;20065;-75
2022/01/25 03:29:29;;;;;;;38.15;26.63;;;;;;;16.55;39.69;103169.25;5012039;28;20025;-70
2022/01/25 03:31:55;;;;;;;43.15;27.52;;;;;;;16.59;39.66;103168.38;5013491;28;20050;-71
2022/01/25 03:34:20;;;;;;;39.72;26.05;;;;;;;16.57;39.75;103164.28;5013505;28;20026;-70
2022/01/25 03:36:47;;;;;;;49.60;27.42;;;;;;;16.56;39.75;103160.72;5013715;28;20467;-73
2022/01/25 03:39:13;;;;;;;41.95;26.08;;;;;;;16.54;39.90;103159.34;5013759;28;20104;-73
2022/01/25 03:41:38;;;;;;;38.83;25.77;;;;;;;16.60;39.60;103158.97;5013309;28;20555;-73
2022/01/25 03:44:05;;;;;;;43.60;27.80;;;;;;;16.58;39.73;103155.69;5013362;28;20028;-71
2022/01/25 03:51:48;;;;;;;32.47;21.88;;;;;;;16.54;39.40;103143.59;5013523;28;20084;-70
2022/01/25 03:54:14;;;;;;;41.92;27.13;;;;;;;16.55;39.49;103148.03;5013213;28;20034;-74
2022/01/25 03:56:40;;;;;;;35.72;24.23;;;;;;;16.53;39.41;103139.19;5013109;28;20515;-71
2022/01/25 03:59:07;;;;;;;37.45;23.08;;;;;;;16.53;39.28;103138.38;5011990;28;20030;-74
2022/01/25 04:01:35;;;;;;;39.42;25.27;;;;;;;16.56;38.98;103135.03;5013120;28;20088;-74
2022/01/25 04:04:05;;;;;;;41.28;22.92;;;;;;;16.53;39.19;103135.63;5012924;28;20057;-72
2022/01/25 04:06:32;;;;;;;36.08;23.27;;;;;;;16.39;39.33;103127.22;5013024;28;20032;-74
2022/01/25 04:09:04;;;;;;;36.50;23.73;;;;;;;16.50;39.08;103128.75;5012930;28;20037;-74
2022/01/25 04:11:29;;;;;;;34.75;23.63;;;;;;;16.55;39.10;103125.09;5012948;28;20022;-74
2022/01/25 04:13:57;;;;;;;42.05;23.38;;;;;;;16.47;39.37;103129.34;5012905;28;20112;-70
2022/01/25 04:16:32;;;;;;;37.28;22.88;;;;;;;16.52;38.99;103134.81;5012933;28;20036;-71
2022/01/25 04:19:07;;;;;;;37.20;23.63;;;;;;;16.49;39.15;103126.31;5013054;28;20045;-74
2022/01/25 04:26:45;;;;;;;38.45;23.45;;;;;;;16.54;39.11;103132.56;5013100;28;20046;-74
2022/01/25 04:29:10;;;;;;;38.15;24.70;;;;;;;16.52;39.14;103129.28;5012882;28;20042;-71
2022/01/25 04:31:37;;;;;;;36.42;23.60;;;;;;;16.56;39.18;103140.56;5012735;28;20286;-72
2022/01/25 04:34:13;;;;;;;40.58;24.02;;;;;;;16.54;39.07;103129.78;5012612;28;20396;-70
2022/01/25 04:50:20;;;;;;;41.30;24.67;;;;;;;16.38;39.09;103128.34;5012830;28;20070;-74
2022/01/25 04:52:55;;;;;;;34.08;23.33;;;;;;;16.45;38.98;103134.34;5012518;28;20033;-73
2022/01/25 04:55:32;;;;;;;33.95;21.45;;;;;;;16.37;39.23;103124.78;5012565;28;20063;-70
2022/01/25 04:58:06;;;;;;;37.55;22.80;;;;;;;16.35;39.22;103129.78;5012551;28;20036;-71
2022/01/25 05:00:33;;;;;;;31.60;22.08;;;;;;;16.34;39.10;103130.06;5012735;28;20061;-73
2022/01/25 05:03:15;;;;;;;32.50;21.48;;;;;;;16.31;39.23;103127.88;5012598;28;20437;-73
2022/01/25 05:06:16;;;;;;;36.58;23.95;;;;;;;16.25;39.27;103126.31;5012400;28;20030;-74
2022/01/25 05:08:38;;;;;;;30.23;21.00;;;;;;;16.32;39.38;103126.75;5012178;28;20038;-71
2022/01/25 05:11:10;;;;;;;38.30;24.35;;;;;;;16.29;38.92;103128.19;5016154;28;20101;-70
2022/01/25 05:19:02;;;;;;;42.53;22.65;;;;;;;16.30;39.08;103121.53;5016414;28;20476;-73
2022/01/25 05:24:11;;;;;;;33.63;20.95;;;;;;;16.27;38.93;103124.09;5015877;28;20033;-75
2022/01/25 05:26:37;;;;;;;31.45;22.13;;;;;;;16.25;39.20;103127.16;5016040;28;20025;-71
2022/01/25 05:29:03;;;;;;;35.67;23.30;;;;;;;16.29;39.11;103128.19;5015795;28;20468;-71
2022/01/25 05:31:29;;;;;;;29.60;21.27;;;;;;;16.28;38.86;103126.53;5014669;28;20494;-75
2022/01/25 05:33:55;;;;;;;34.60;21.33;;;;;;;16.29;38.84;103130.13;5015612;28;20022;-71
2022/01/25 05:36:20;;;;;;;29.08;19.92;;;;;;;16.32;38.90;103124.00;5015833;28;20025;-74
2022/01/25 05:38:47;;;;;;;34.10;20.67;;;;;;;16.24;38.96;103127.41;5015976;28;20026;-70
2022/01/25 05:41:14;;;;;;;33.00;22.42;;;;;;;16.23;39.08;103131.28;5015667;28;20025;-74
2022/01/25 05:44:13;;;;;;;31.85;21.75;;;;;;;16.28;39.06;103129.31;5015464;28;20500;-75
2022/01/25 05:46:48;;;;;;;35.55;22.17;;;;;;;16.22;38.93;103124.13;5000495;28;20045;-74
2022/01/25 05:49:14;;;;;;;32.83;21.98;;;;;;;16.19;39.24;103119.22;4995760;28;20484;-70
2022/01/25 05:51:41;;;;;;;36.05;20.90;;;;;;;16.18;39.06;103123.09;4995914;28;20033;-74
2022/01/25 05:54:07;;;;;;;30.63;19.80;;;;;;;16.21;39.07;103122.50;4995705;28;20030;-70
2022/01/25 05:56:33;;;;;;;30.50;20.20;;;;;;;16.21;39.10;103123.31;4995690;28;20476;-73
2022/01/25 05:58:58;;;;;;;31.42;21.85;;;;;;;16.18;39.15;103121.16;4995660;28;20484;-69
2022/01/25 06:01:24;;;;;;;36.10;24.33;;;;;;;16.17;39.03;103132.47;4995529;28;20477;-69
2022/01/25 06:03:50;;;;;;;30.00;19.85;;;;;;;16.21;38.98;103128.00;4995446;28;20456;-73
2022/01/25 06:06:16;;;;;;;34.45;20.65;;;;;;;16.20;38.90;103127.19;4995587;28;20023;-73
2022/01/25 06:08:41;;;;;;;30.77;20.55;;;;;;;16.28;39.05;103125.72;4995438;28;20033;-70
2022/01/25 06:11:07;;;;;;;32.13;22.90;;;;;;;16.32;38.95;103118.47;4995473;28;20029;-69
2022/01/25 06:13:33;;;;;;;31.05;20.40;;;;;;;16.24;38.89;103119.13;4995472;28;20019;-71
2022/01/25 06:15:58;;;;;;;28.08;19.40;;;;;;;16.27;38.86;103126.84;4995483;28;20033;-72
2022/01/25 06:18:24;;;;;;;34.90;20.45;;;;;;;16.23;39.01;103128.53;4995478;28;20114;-74
2022/01/25 06:20:50;;;;;;;32.08;21.80;;;;;;;16.21;39.00;103128.81;4995089;28;20504;-74
2022/01/25 06:23:15;;;;;;;36.05;21.23;;;;;;;16.26;39.00;103128.78;4995320;28;20062;-75
2022/01/25 06:25:41;;;;;;;30.33;20.58;;;;;;;16.17;39.06;103129.69;4993884;28;20030;-73
2022/01/25 06:28:07;;;;;;;30.10;19.98;;;;;;;16.16;39.12;103139.91;4994149;28;20040;-73
2022/01/25 06:30:33;;;;;;;30.08;19.25;;;;;;;16.12;39.22;103136.09;4995241;28;20551;-71
2022/01/25 06:32:59;;;;;;;33.30;21.02;;;;;;;16.32;38.74;103133.13;4995349;28;20026;-74
2022/01/25 06:35:30;;;;;;;26.20;20.30;;;;;;;16.37;38.80;103130.28;4995255;28;20439;-74
2022/01/25 06:37:56;;;;;;;31.08;19.98;;;;;;;16.27;38.81;103135.94;4994962;28;20057;-70
2022/01/25 06:40:23;;;;;;;29.23;19.65;;;;;;;16.37;38.50;103141.31;4994986;28;20046;-74
2022/01/25 06:42:49;;;;;;;32.58;19.98;;;;;;;16.35;38.72;103148.25;4994878;28;20026;-73
2022/01/25 06:45:20;;;;;;;35.25;20.55;;;;;;;16.27;38.62;103138.69;4994771;28;20117;-70
2022/01/25 06:47:47;;;;;;;31.15;19.23;;;;;;;16.22;38.81;103143.44;4994879;28;20038;-73
2022/01/25 06:50:15;;;;;;;26.08;17.90;;;;;;;16.21;38.89;103139.03;4994707;28;20035;-73
2022/01/25 06:52:42;;;;;;;29.23;18.55;;;;;;;16.21;38.87;103141.81;4994654;28;20019;-73
2022/01/25 06:55:12;;;;;;;28.77;18.25;;;;;;;16.18;38.90;103139.63;4994478;28;20018;-72
2022/01/25 06:57:38;;;;;;;25.35;18.40;;;;;;;16.22;38.85;103136.00;4994514;28;20058;-73
2022/01/25 07:00:13;;;;;;;28.00;19.00;;;;;;;16.06;39.17;103140.03;4994456;28;20030;-73
2022/01/25 07:02:39;;;;;;;30.45;18.35;;;;;;;16.02;39.40;103137.06;4994387;28;20109;-69
2022/01/25 07:05:06;;;;;;;29.17;19.20;;;;;;;15.98;39.37;103149.75;4994313;28;20040;-70
2022/01/25 07:07:31;;;;;;;28.98;18.58;;;;;;;15.98;39.34;103146.19;4994290;28;20492;-72
2022/01/25 07:09:58;;;;;;;26.60;17.15;;;;;;;15.95;39.53;103146.78;4994373;28;20029;-69
2022/01/25 07:12:24;;;;;;;32.58;19.75;;;;;;;16.04;39.16;103148.59;4994200;28;20525;-73
2022/01/25 07:14:50;;;;;;;28.70;18.50;;;;;;;15.99;39.37;103148.66;5003638;28;20073;-69
2022/01/25 07:17:16;;;;;;;22.60;16.77;;;;;;;16.04;39.29;103156.88;5013808;28;20030;-70
2022/01/25 07:19:41;;;;;;;24.02;17.45;;;;;;;15.95;39.28;103135.75;5013629;28;20076;-69
2022/01/25 07:22:07;;;;;;;27.17;17.48;;;;;;;16.04;39.16;103156.88;5013713;28;20030;-69
2022/01/25 07:24:33;;;;;;;24.83;15.95;;;;;;;15.96;39.43;103165.78;5008329;28;20046;-70
2022/01/25 07:26:58;;;;;;;22.42;15.77;;;;;;;16.10;39.22;103165.94;4995526;28;20034;-71
2022/01/25 07:29:24;;;;;;;23.58;16.20;;;;;;;16.07;39.12;103166.50;4997588;28;20117;-71
2022/01/25 07:31:50;;;;;;;25.98;16.38;;;;;;;15.97;39.43;103180.38;4998816;28;20079;-71
2022/01/25 07:34:15;;;;;;;25.88;15.15;;;;;;;15.99;39.25;103186.44;5003993;28;20033;-76
2022/01/25 07:36:42;;;;;;;26.55;16.65;;;;;;;15.99;39.11;103178.16;5013264;28;20074;-73
2022/01/25 07:39:09;;;;;;;24.95;16.42;;;;;;;16.04;39.16;103187.22;5013362;28;20030;-76
2022/01/25 07:41:36;;;;;;;19.90;14.82;;;;;;;15.94;39.37;103187.28;5013380;28;20033;-76
2022/01/25 07:44:02;;;;;;;32.50;16.45;;;;;;;16.02;39.43;103188.59;5013188;28;20030;-70
2022/01/25 07:46:29;;;;;;;24.52;15.50;;;;;;;15.93;39.42;103184.81;4990171;28;20515;-72
2022/01/25 07:48:55;;;;;;;29.45;16.15;;;;;;;15.80;39.73;103195.44;4957423;28;20676;-73
2022/01/25 07:51:21;;;;;;;25.50;16.88;;;;;;;15.88;39.47;103194.00;4969876;28;21675;-73
2022/01/25 07:53:47;;;;;;;20.92;15.43;;;;;;;15.88;39.70;103194.00;4972276;28;20120;-73
2022/01/25 07:56:12;;;;;;;24.85;16.00;;;;;;;15.94;39.57;103191.97;4962085;28;20110;-74
2022/01/25 07:58:38;;;;;;;22.23;15.25;;;;;;;15.92;39.63;103189.53;4962710;28;20022;-71
2022/01/25 08:01:05;;;;;;;25.15;17.00;;;;;;;15.99;39.19;103195.53;4989397;28;20022;-76
2022/01/25 08:03:31;;;;;;;25.80;16.80;;;;;;;16.13;39.21;103208.63;4998262;28;20161;-72
2022/01/25 08:05:56;;;;;;;20.17;13.77;;;;;;;16.05;39.06;103199.88;4993022;28;20050;-72
2022/01/25 08:08:22;;;;;;;24.95;16.90;;;;;;;15.99;39.28;103203.78;4993051;28;20058;-74
2022/01/25 08:10:48;;;;;;;26.67;16.00;;;;;;;15.99;39.43;103201.03;4993104;28;20065;-76
2022/01/25 08:13:14;;;;;;;21.75;15.30;;;;;;;16.04;39.25;103205.69;4993015;28;20587;-71
2022/01/25 08:15:39;;;;;;;28.17;15.98;;;;;;;16.03;39.28;103204.06;4992865;28;20084;-71
2022/01/25 08:18:05;;;;;;;31.45;16.98;;;;;;;16.09;39.28;103200.94;4992881;28;20493;-71
2022/01/25 08:20:31;;;;;;;21.38;14.63;;;;;;;16.00;39.30;103210.13;4992847;28;20025;-71
2022/01/25 08:22:56;;;;;;;20.92;14.85;;;;;;;16.04;39.27;103214.78;4992858;28;20030;-71
2022/01/25 08:25:22;;;;;;;25.20;15.02;;;;;;;16.02;39.48;103216.16;4992138;28;20049;-72
2022/01/25 08:27:48;;;;;;;25.23;16.17;;;;;;;16.00;39.29;103219.22;4992408;28;20165;-71
2022/01/25 08:30:14;;;;;;;31.73;17.15;;;;;;;16.04;39.34;103222.25;4991172;28;20022;-73
2022/01/25 08:32:41;;;;;;;33.15;18.35;;;;;;;15.93;39.52;103224.25;4992877;28;20030;-72
2022/01/25 08:35:07;;;;;;;31.30;16.88;;;;;;;16.02;39.47;103216.16;4991290;28;20030;-71
2022/01/25 08:37:33;;;;;;;20.52;14.52;;;;;;;16.05;39.16;103223.88;4956914;28;20018;-72
2022/01/25 08:39:58;;;;;;;26.30;16.58;;;;;;;16.06;39.16;103215.31;4959440;28;21436;-72
2022/01/25 08:42:24;;;;;;;30.58;16.48;;;;;;;16.09;39.36;103224.94;4974947;28;20432;-71
2022/01/25 08:44:49;;;;;;;26.90;15.25;;;;;;;16.13;39.21;103231.53;4980726;28;20030;-72
2022/01/25 08:47:16;;;;;;;24.90;16.60;;;;;;;16.04;39.33;103219.47;4979111;28;20116;-72
2022/01/25 08:49:41;;;;;;;22.00;15.60;;;;;;;16.01;39.55;103225.56;4979219;28;20069;-70
2022/01/25 08:52:07;;;;;;;26.20;16.52;;;;;;;16.08;39.16;103224.09;4979763;28;20353;-71
2022/01/25 08:54:34;;;;;;;24.48;14.70;;;;;;;15.98;39.42;103224.22;4979944;28;20052;-73
2022/01/25 08:57:00;;;;;;;29.20;17.80;;;;;;;16.02;39.27;103222.53;4979506;28;20042;-71
2022/01/25 08:59:26;;;;;;;19.00;13.68;;;;;;;15.96;39.57;103220.94;4981683;28;20109;-70
2022/01/25 09:01:52;;;;;;;28.15;16.67;;;;;;;16.03;39.53;103217.84;4996066;28;20538;-70
2022/01/25 09:04:18;;;;;;;27.98;16.90;;;;;;;15.93;39.66;103209.66;4996449;28;20033;-70
2022/01/25 09:06:43;;;;;;;27.52;16.70;;;;;;;16.06;39.38;103215.31;4993236;28;20061;-70
2022/01/25 09:09:10;;;;;;;33.05;16.85;;;;;;;15.99;39.51;103211.25;4994520;28;20120;-70
2022/01/25 09:11:38;;;;;;;28.95;17.45;;;;;;;15.98;39.65;103207.66;4994436;28;20037;-70
2022/01/25 09:14:04;;;;;;;35.33;15.43;;;;;;;16.03;39.31;103213.16;4994627;28;20034;-70
2022/01/25 09:16:31;;;;;;;31.65;17.48;;;;;;;16.11;39.27;103208.13;4995350;28;20022;-75
2022/01/25 09:18:57;;;;;;;27.50;15.65;;;;;;;16.13;39.60;103211.41;4995591;28;20097;-72
2022/01/25 09:21:22;;;;;;;22.55;15.30;;;;;;;16.04;39.64;103214.78;4995952;28;20034;-72
2022/01/25 09:23:48;;;;;;;23.92;15.68;;;;;;;16.20;39.33;103209.94;4996521;28;20034;-71
2022/01/25 09:26:14;;;;;;;27.48;15.70;;;;;;;16.12;39.29;103198.72;4996330;28;20034;-75
2022/01/25 09:28:40;;;;;;;26.95;14.68;;;;;;;16.11;39.52;103213.63;4996069;28;20077;-71
2022/01/25 09:31:05;;;;;;;27.02;15.10;;;;;;;16.14;39.39;103213.03;4996373;28;20061;-71
2022/01/25 09:33:31;;;;;;;27.02;14.25;;;;;;;16.24;39.13;103219.25;4995945;28;20433;-71
2022/01/25 09:35:57;;;;;;;23.15;14.70;;;;;;;16.22;39.32;103215.16;4994382;28;20038;-71
2022/01/25 09:38:24;;;;;;;26.27;15.63;;;;;;;16.11;39.55;103214.44;4995892;28;20026;-72
2022/01/25 09:40:50;;;;;;;22.00;14.73;;;;;;;16.21;39.10;103217.09;4995847;28;20034;-71
2022/01/25 09:43:16;;;;;;;27.52;16.95;;;;;;;16.29;39.35;103218.41;4995825;28;20050;-72
2022/01/25 09:45:42;;;;;;;30.17;15.80;;;;;;;16.28;39.22;103222.28;4995599;28;20034;-71
2022/01/25 09:48:09;;;;;;;23.77;15.43;;;;;;;16.29;39.13;103221.16;4995671;28;20050;-72
2022/01/25 09:50:36;;;;;;;23.10;14.80;;;;;;;16.27;39.07;103215.13;4994490;28;20342;-71
2022/01/25 09:53:04;;;;;;;23.20;14.25;;;;;;;16.34;39.08;103210.09;4995547;28;20034;-71
2022/01/25 09:55:33;;;;;;;22.27;14.55;;;;;;;16.35;38.97;103207.03;4995068;28;20042;-71
2022/01/25 09:57:59;;;;;;;24.75;14.20;;;;;;;16.26;39.34;103217.06;4995406;28;20037;-71
2022/01/25 10:00:29;;;;;;;21.38;14.68;;;;;;;16.36;38.95;103205.91;4995822;28;20472;-70
2022/01/25 10:03:06;;;;;;;22.63;15.73;;;;;;;16.31;39.03;103219.75;5000097;28;20038;-73
2022/01/25 10:05:36;;;;;;;28.58;15.65;;;;;;;16.40;39.11;103208.91;5000897;28;20546;-71
2022/01/25 10:08:09;;;;;;;24.42;15.30;;;;;;;16.43;39.07;103211.06;5000968;28;20018;-72
2022/01/25 10:10:38;;;;;;;24.77;14.52;;;;;;;16.38;38.93;103209.19;5002881;28;20038;-73
2022/01/25 10:13:14;;;;;;;33.80;17.25;;;;;;;16.53;38.79;103207.38;5004242;28;20042;-77
2022/01/25 10:15:41;;;;;;;26.48;15.23;;;;;;;16.50;39.08;103205.22;5000302;28;20065;-72
2022/01/25 10:18:07;;;;;;;23.75;14.98;;;;;;;16.48;38.87;103200.00;5003840;28;20383;-73
2022/01/25 10:20:36;;;;;;;25.35;15.05;;;;;;;16.44;38.95;103200.88;5004597;28;20022;-71
2022/01/25 10:23:18;;;;;;;20.77;14.48;;;;;;;16.55;38.65;103202.38;4999467;28;20018;-71
2022/01/25 10:25:47;;;;;;;27.10;15.85;;;;;;;16.60;38.76;103199.56;5001577;28;20057;-70
2022/01/25 10:28:15;;;;;;;26.02;15.77;;;;;;;16.66;38.84;103206.66;5002721;28;20026;-71
2022/01/25 10:30:50;;;;;;;32.20;17.00;;;;;;;16.75;38.85;103204.94;5000197;28;20073;-70
2022/01/25 10:33:18;;;;;;;30.75;15.02;;;;;;;16.71;38.79;103211.34;5002326;28;20018;-71
2022/01/25 10:35:44;;;;;;;40.25;16.27;;;;;;;16.74;38.94;103214.34;5000384;28;20388;-71
2022/01/25 10:38:20;;;;;;;28.85;15.73;;;;;;;16.90;38.68;103214.97;5003730;28;20022;-71
2022/01/25 10:40:54;;;;;;;23.58;14.52;;;;;;;16.81;38.94;103206.50;5001569;28;20018;-76
2022/01/25 10:43:28;;;;;;;33.42;15.68;;;;;;;16.88;38.61;103206.16;5000032;28;20100;-70
2022/01/25 10:46:04;;;;;;;27.92;14.90;;;;;;;17.06;38.57;103207.28;4997518;28;20384;-71
2022/01/25 10:48:30;;;;;;;29.00;14.60;;;;;;;16.98;38.68;103203.25;4993153;28;20060;-76
2022/01/25 10:51:07;;;;;;;22.20;12.65;;;;;;;17.00;38.52;103203.75;4994553;28;20030;-71
2022/01/25 10:53:32;;;;;;;17.90;12.63;;;;;;;17.14;38.21;103209.38;4994493;28;20110;-73
2022/01/25 10:56:02;;;;;;;23.15;13.63;;;;;;;17.13;38.33;103205.78;4994484;28;20113;-78
2022/01/25 10:58:29;;;;;;;21.75;13.38;;;;;;;17.17;38.44;103209.63;4994390;28;20076;-72
2022/01/25 11:00:55;;;;;;;19.67;12.15;;;;;;;17.30;38.24;103207.22;4994645;28;20384;-72
2022/01/25 11:03:45;;;;;;;18.77;12.05;;;;;;;17.30;38.37;103209.97;4991288;28;20035;-74
2022/01/25 11:06:17;;;;;;;26.23;13.25;;;;;;;17.32;38.18;103210.53;4974064;28;20748;-74
2022/01/25 11:08:46;;;;;;;17.30;11.95;;;;;;;17.47;38.03;103213.06;4977457;28;20026;-77
2022/01/25 11:11:23;;;;;;;36.05;16.27;;;;;;;17.38;38.10;103218.44;4977510;28;20079;-72
2022/01/25 11:13:50;;;;;;;33.63;18.33;;;;;;;17.37;38.35;103216.78;4988247;28;20065;-74
2022/01/25 11:16:15;;;;;;;28.52;14.73;;;;;;;17.48;38.28;103214.69;4993996;28;20042;-72
2022/01/25 11:18:41;;;;;;;25.45;15.52;;;;;;;17.48;38.09;103215.50;4993971;28;20481;-73
2022/01/25 11:21:09;;;;;;;22.50;12.93;;;;;;;17.44;38.13;103219.97;4997942;28;20083;-71
2022/01/25 11:23:37;;;;;;;20.77;13.32;;;;;;;17.54;38.01;103209.91;5013635;28;20034;-73
2022/01/25 11:26:06;;;;;;;23.23;13.23;;;;;;;17.55;37.87;103219.84;5013050;28;20124;-72
2022/01/25 11:28:33;;;;;;;23.10;14.75;;;;;;;17.49;38.02;103216.34;5013701;28;20104;-72
2022/01/25 11:31:06;;;;;;;24.13;13.25;;;;;;;17.51;38.03;103211.31;5010879;28;20040;-70
2022/01/25 11:33:33;;;;;;;30.67;14.40;;;;;;;17.39;38.18;103206.25;4992429;28;20511;-71
2022/01/25 11:36:05;;;;;;;27.95;14.48;;;;;;;17.38;38.16;103214.81;4993719;28;20026;-70
2022/01/25 11:38:41;;;;;;;18.50;11.75;;;;;;;17.33;38.32;103217.69;4991418;28;20026;-73
2022/01/25 11:41:12;;;;;;;28.17;14.05;;;;;;;17.25;38.19;103201.78;4993982;28;20034;-72
2022/01/25 11:43:38;;;;;;;20.42;12.95;;;;;;;17.45;37.98;103209.75;4993557;28;20567;-70
2022/01/25 11:46:06;;;;;;;18.48;11.50;;;;;;;17.40;38.05;103218.13;4993400;28;20061;-72
2022/01/25 11:48:44;;;;;;;21.73;12.27;;;;;;;17.49;38.13;103216.34;4993792;28;20042;-72
2022/01/25 11:51:20;;;;;;;19.75;12.55;;;;;;;17.42;38.25;103213.94;4981545;28;20026;-74
2022/01/25 11:53:50;;;;;;;24.63;13.85;;;;;;;17.64;37.88;103218.03;4993683;28;20031;-75
2022/01/25 11:56:17;;;;;;;19.77;12.93;;;;;;;17.61;38.03;103218.66;4992130;28;20140;-73
2022/01/25 11:58:53;;;;;;;22.83;13.63;;;;;;;17.43;38.07;103218.34;4993419;28;20477;-73
2022/01/25 12:01:22;;;;;;;27.23;12.82;;;;;;;17.56;38.11;103211.25;4993082;28;20026;-71
2022/01/25 12:03:56;;;;;;;27.27;14.37;;;;;;;17.57;38.03;103218.41;5000662;28;20041;-72
2022/01/25 12:06:32;;;;;;;25.50;14.85;;;;;;;17.54;38.31;103219.03;5000882;28;20295;-72
2022/01/25 12:11:48;;;;;;;21.98;13.85;;;;;;;17.58;38.12;103211.75;5000316;28;20023;-72
2022/01/25 12:14:30;;;;;;;32.40;14.80;;;;;;;17.63;37.90;103205.34;5000765;28;20109;-72
2022/01/25 12:17:09;;;;;;;30.38;14.40;;;;;;;17.49;38.03;103199.75;5001280;28;20032;-72
2022/01/25 12:19:59;;;;;;;29.30;14.35;;;;;;;17.62;37.88;103201.75;5000635;28;20045;-72
2022/01/25 12:22:38;;;;;;;31.33;15.75;;;;;;;17.74;37.83;103215.94;5002683;28;20033;-73
2022/01/25 12:25:16;;;;;;;26.13;13.15;;;;;;;17.82;37.60;103199.78;5002823;28;20117;-73
2022/01/25 12:28:03;;;;;;;24.30;14.38;;;;;;;17.71;37.91;103197.22;5002859;28;20461;-73
2022/01/25 12:30:28;;;;;;;31.25;13.93;;;;;;;17.82;37.69;103186.78;4998853;28;20026;-73
2022/01/25 12:33:08;;;;;;;20.02;13.30;;;;;;;17.81;37.65;103185.16;5001499;28;20534;-73
2022/01/25 12:35:57;;;;;;;22.83;14.35;;;;;;;17.96;37.42;103195.13;5000551;28;20053;-73
2022/01/25 12:38:25;;;;;;;20.25;12.48;;;;;;;17.94;37.51;103200.97;4998147;28;20037;-72
2022/01/25 12:40:53;;;;;;;29.25;14.43;;;;;;;18.08;37.33;103203.75;5001543;28;20489;-73
2022/01/25 12:43:35;;;;;;;30.65;14.80;;;;;;;17.99;37.39;103197.28;5000839;28;20490;-73
2022/01/25 12:46:10;;;;;;;41.33;16.73;;;;;;;18.08;37.30;103200.19;5001882;28;20120;-73
2022/01/25 12:48:47;;;;;;;26.73;14.85;;;;;;;18.01;37.24;103186.75;5001386;28;20045;-74
2022/01/25 12:51:20;;;;;;;32.75;15.05;;;;;;;18.13;37.04;103192.59;5002560;28;20437;-73
2022/01/25 12:53:48;;;;;;;24.13;15.45;;;;;;;18.17;37.01;103185.31;5002201;28;20030;-75
2022/01/25 12:56:18;;;;;;;28.42;16.55;;;;;;;18.17;37.34;103185.31;4998024;28;20165;-73
2022/01/25 12:58:46;;;;;;;35.78;16.30;;;;;;;18.20;37.18;103184.69;5001262;28;20396;-70
2022/01/25 13:01:15;;;;;;;33.78;16.70;;;;;;;18.18;37.15;103181.44;5002453;28;20423;-72
2022/01/25 13:03:44;;;;;;;17.08;12.57;;;;;;;18.25;37.03;103189.31;5001466;28;20465;-71
2022/01/25 13:06:11;;;;;;;26.40;14.63;;;;;;;18.24;37.25;103194.03;5000271;28;20030;-73
2022/01/25 13:11:50;;;;;;;31.42;16.63;;;;;;;18.25;36.89;103189.31;5001872;28;20037;-74
2022/01/25 13:14:33;;;;;;;24.23;14.77;;;;;;;18.49;36.58;103194.66;5010594;28;20054;-74
2022/01/25 13:17:03;;;;;;;56.75;19.90;;;;;;;18.48;36.59;103187.50;5012155;28;20034;-71
2022/01/25 13:19:47;;;;;;;34.13;16.40;;;;;;;18.50;36.69;103179.69;5012195;28;20413;-72
2022/01/25 13:22:16;;;;;;;44.35;15.60;;;;;;;18.38;36.79;103169.16;5012283;28;20439;-72
2022/01/25 13:25:13;;;;;;;33.08;15.70;;;;;;;18.54;36.47;103169.66;5012365;28;20033;-72
2022/01/25 13:27:50;;;;;;;24.10;13.50;;;;;;;18.51;36.57;103171.09;5010922;28;20034;-70
2022/01/25 13:30:45;;;;;;;37.72;16.05;;;;;;;18.60;36.41;103162.06;5011470;28;20034;-71
2022/01/25 13:33:13;;;;;;;35.10;15.98;;;;;;;18.49;36.53;103156.72;5013792;28;20362;-71
2022/01/25 13:35:42;;;;;;;28.60;14.75;;;;;;;18.59;36.32;103155.72;5013686;28;20026;-71
2022/01/25 13:38:16;;;;;;;22.85;14.10;;;;;;;18.47;36.61;103156.22;5005970;28;20558;-71
2022/01/25 13:41:04;;;;;;;31.10;15.88;;;;;;;18.54;36.47;103153.88;4994940;28;20068;-74
2022/01/25 13:46:04;;;;;;;26.95;13.70;;;;;;;18.71;36.39;103150.47;4995205;28;20034;-71
2022/01/25 13:48:31;;;;;;;33.63;15.85;;;;;;;18.61;36.40;103153.44;4995225;28;20050;-73
2022/01/25 13:51:06;;;;;;;33.13;15.75;;;;;;;18.48;36.41;103143.19;4995524;28;20114;-71
2022/01/25 13:53:33;;;;;;;26.20;13.93;;;;;;;18.64;36.47;103133.44;4995617;28;20022;-72